createdAt,value
2022-12-28T00:02:17.919Z,3.61
2022-12-28T00:04:44.363Z,3.61
2022-12-28T00:07:11.236Z,3.77
2022-12-28T00:09:41.798Z,3.59
2022-12-28T00:12:08.304Z,3.89
2022-12-28T00:14:35.738Z,3.99
2022-12-28T00:17:02.181Z,4.12
2022-12-28T00:19:29.063Z,4.25
2022-12-28T00:21:58.156Z,4.02
2022-12-28T00:24:24.539Z,3.89
2022-12-28T00:26:52.172Z,4.30
2022-12-28T00:29:18.553Z,4.12
2022-12-28T00:31:45.087Z,4.39
2022-12-28T00:34:11.970Z,4.33
2022-12-28T00:37:08.624Z,4.45
2022-12-28T00:39:27.528Z,4.54
2022-12-28T00:41:54.711Z,4.32
2022-12-28T00:44:22.497Z,4.92
2022-12-28T00:46:48.956Z,4.55
2022-12-28T00:49:15.347Z,4.62
2022-12-28T00:51:41.898Z,4.82
2022-12-28T00:54:10.489Z,5.05
2022-12-28T00:56:44.036Z,4.85
2022-12-28T00:59:10.399Z,4.71
2022-12-28T01:01:36.943Z,4.64
2022-12-28T01:04:03.637Z,5.00
2022-12-28T01:06:32.276Z,5.03
2022-12-28T01:08:58.749Z,5.09
2022-12-28T01:11:25.156Z,5.01
2022-12-28T01:13:52.648Z,4.67
2022-12-28T01:16:19.563Z,4.83
2022-12-28T01:18:46.056Z,4.93
2022-12-28T01:21:13.623Z,4.47
2022-12-28T01:23:40.209Z,4.18
2022-12-28T01:26:06.778Z,4.50
2022-12-28T01:28:33.287Z,4.38
2022-12-28T01:30:59.766Z,4.27
2022-12-28T01:33:26.164Z,4.77
2022-12-28T01:35:52.609Z,4.50
2022-12-28T01:38:19.003Z,3.83
2022-12-28T01:40:48.568Z,3.32
2022-12-28T01:43:14.977Z,3.29
2022-12-28T01:45:58.671Z,3.65
2022-12-28T01:48:25.156Z,3.12
2022-12-28T01:50:51.640Z,3.68
2022-12-28T01:53:18.009Z,3.57
2022-12-28T01:55:44.727Z,3.49
2022-12-28T01:58:11.090Z,3.01
2022-12-28T02:00:37.505Z,2.78
2022-12-28T02:03:04.015Z,2.76
2022-12-28T02:05:30.479Z,3.07
2022-12-28T02:07:58.132Z,3.22
2022-12-28T02:10:41.279Z,2.86
2022-12-28T02:13:11.931Z,3.07
2022-12-28T02:15:40.874Z,2.73
2022-12-28T02:18:07.416Z,2.79
2022-12-28T02:20:34.467Z,2.82
2022-12-28T02:23:05.494Z,2.72
2022-12-28T02:25:32.654Z,3.57
2022-12-28T02:27:59.401Z,3.54
2022-12-28T02:30:25.996Z,3.52
2022-12-28T02:32:54.074Z,3.39
2022-12-28T02:35:20.473Z,3.34
2022-12-28T02:37:46.875Z,5.92
2022-12-28T02:40:13.498Z,5.54
2022-12-28T02:42:39.964Z,3.94
2022-12-28T02:45:06.696Z,3.47
2022-12-28T02:47:33.057Z,3.03
2022-12-28T02:49:59.738Z,2.76
2022-12-28T02:52:26.128Z,2.59
2022-12-28T02:54:52.553Z,2.62
2022-12-28T02:57:19.405Z,2.40
2022-12-28T02:59:46.036Z,2.36
2022-12-28T03:02:12.813Z,2.70
2022-12-28T03:04:39.413Z,2.61
2022-12-28T03:07:06.565Z,2.41
2022-12-28T03:09:33.991Z,2.44
2022-12-28T03:12:00.389Z,2.83
2022-12-28T03:14:26.855Z,2.63
2022-12-28T03:16:57.404Z,2.63
2022-12-28T03:19:24.297Z,2.72
2022-12-28T03:21:50.693Z,2.35
2022-12-28T03:24:17.147Z,2.19
2022-12-28T03:26:43.729Z,2.30
2022-12-28T03:29:10.276Z,2.48
2022-12-28T03:31:36.623Z,2.97
2022-12-28T03:34:07.457Z,2.88
2022-12-28T03:36:34.152Z,2.69
2022-12-28T03:39:00.540Z,2.53
2022-12-28T03:41:27.309Z,2.48
2022-12-28T03:43:55.955Z,2.53
2022-12-28T03:46:22.418Z,2.69
2022-12-28T03:48:48.793Z,2.51
2022-12-28T03:51:16.006Z,2.18
2022-12-28T03:53:42.457Z,2.23
2022-12-28T03:56:08.859Z,2.30
2022-12-28T03:58:35.231Z,2.23
2022-12-28T04:01:02.049Z,2.29
2022-12-28T04:03:28.471Z,2.31
2022-12-28T04:05:56.830Z,2.35
2022-12-28T04:08:23.204Z,2.37
2022-12-28T04:10:50.686Z,2.15
2022-12-28T04:13:18.413Z,2.05
2022-12-28T04:15:44.849Z,2.03
2022-12-28T04:18:11.347Z,1.80
2022-12-28T04:20:37.804Z,1.96
2022-12-28T04:23:04.450Z,1.89
2022-12-28T04:25:30.820Z,1.86
2022-12-28T04:27:57.658Z,1.85
2022-12-28T04:30:24.380Z,1.85
2022-12-28T04:32:51.015Z,2.06
2022-12-28T04:35:17.559Z,2.06
2022-12-28T04:37:43.899Z,1.91
2022-12-28T04:40:11.626Z,2.06
2022-12-28T04:42:38.015Z,1.77
2022-12-28T04:45:04.394Z,1.82
2022-12-28T04:47:33.222Z,1.91
2022-12-28T04:49:59.605Z,1.88
2022-12-28T04:52:26.004Z,1.82
2022-12-28T04:54:52.389Z,1.98
2022-12-28T04:57:19.807Z,1.72
2022-12-28T04:59:46.145Z,2.00
2022-12-28T05:02:12.635Z,1.86
2022-12-28T05:04:40.053Z,2.05
2022-12-28T05:07:06.907Z,2.03
2022-12-28T05:09:33.419Z,1.84
2022-12-28T05:11:59.884Z,1.81
2022-12-28T05:14:26.728Z,1.79
2022-12-28T05:16:53.335Z,2.07
2022-12-28T05:19:20.931Z,1.79
2022-12-28T05:21:47.340Z,1.75
2022-12-28T05:24:13.822Z,1.59
2022-12-28T05:26:40.170Z,1.86
2022-12-28T05:29:06.864Z,1.77
2022-12-28T05:31:33.409Z,1.75
2022-12-28T05:34:01.041Z,1.63
2022-12-28T05:36:27.432Z,1.77
2022-12-28T05:38:54.214Z,1.95
2022-12-28T05:41:20.666Z,2.05
2022-12-28T05:43:47.080Z,2.39
2022-12-28T05:46:13.646Z,2.60
2022-12-28T05:48:42.460Z,2.20
2022-12-28T05:51:09.030Z,2.00
2022-12-28T05:53:37.653Z,2.03
2022-12-28T05:56:05.053Z,2.35
2022-12-28T05:58:33.802Z,3.20
2022-12-28T06:01:00.316Z,2.74
2022-12-28T06:03:26.916Z,2.70
2022-12-28T06:05:53.390Z,2.47
2022-12-28T06:08:22.726Z,2.53
2022-12-28T06:10:49.297Z,1.94
2022-12-28T06:13:15.643Z,1.94
2022-12-28T06:15:42.373Z,2.08
2022-12-28T06:18:09.600Z,2.99
2022-12-28T06:20:36.154Z,3.69
2022-12-28T06:23:02.605Z,4.18
2022-12-28T06:25:29.164Z,4.39
2022-12-28T06:27:56.169Z,3.79
2022-12-28T06:30:23.080Z,3.41
2022-12-28T06:32:50.065Z,3.19
2022-12-28T06:35:20.716Z,2.37
2022-12-28T06:37:47.256Z,2.12
2022-12-28T06:40:16.275Z,1.91
2022-12-28T06:42:45.890Z,1.88
2022-12-28T06:45:12.285Z,1.87
2022-12-28T06:47:38.989Z,2.05
2022-12-28T06:50:06.333Z,2.01
2022-12-28T06:52:33.186Z,2.62
2022-12-28T06:55:00.043Z,2.88
2022-12-28T06:57:26.420Z,2.36
2022-12-28T06:59:52.829Z,1.85
2022-12-28T07:02:19.737Z,1.91
2022-12-28T07:04:46.371Z,1.96
2022-12-28T07:07:15.023Z,1.54
2022-12-28T07:09:41.446Z,1.54
2022-12-28T07:12:07.829Z,1.79
2022-12-28T07:14:34.446Z,1.78
2022-12-28T07:17:01.494Z,2.48
2022-12-28T07:19:28.051Z,1.90
2022-12-28T07:21:54.804Z,2.18
2022-12-28T07:24:21.500Z,2.52
2022-12-28T07:26:48.187Z,2.42
2022-12-28T07:29:14.887Z,2.24
2022-12-28T07:31:45.455Z,2.41
2022-12-28T07:34:13.277Z,2.39
2022-12-28T07:36:40.926Z,2.59
2022-12-28T07:39:07.567Z,2.50
2022-12-28T07:41:41.037Z,2.58
2022-12-28T07:44:07.906Z,2.31
2022-12-28T07:46:39.388Z,2.50
2022-12-28T07:49:05.804Z,2.61
2022-12-28T07:51:32.204Z,2.68
2022-12-28T07:53:58.677Z,2.54
2022-12-28T07:56:25.046Z,2.72
2022-12-28T08:03:57.068Z,2.71
2022-12-28T08:06:24.509Z,3.25
2022-12-28T08:08:51.311Z,3.13
2022-12-28T08:11:25.144Z,3.20
2022-12-28T08:13:51.722Z,3.24
2022-12-28T08:16:18.226Z,3.07
2022-12-28T08:18:44.653Z,3.45
2022-12-28T08:21:11.539Z,3.40
2022-12-28T08:23:38.994Z,3.43
2022-12-28T08:26:05.773Z,3.30
2022-12-28T08:28:32.609Z,3.62
2022-12-28T08:30:59.188Z,3.72
2022-12-28T08:33:28.285Z,3.47
2022-12-28T08:35:54.975Z,3.85
2022-12-28T08:38:21.373Z,3.61
2022-12-28T08:40:51.533Z,3.54
2022-12-28T08:43:21.967Z,2.89
2022-12-28T08:45:48.374Z,2.69
2022-12-28T08:48:14.851Z,2.70
2022-12-28T08:50:41.240Z,2.87
2022-12-28T08:53:07.798Z,2.95
2022-12-28T08:55:34.326Z,3.68
2022-12-28T08:58:00.812Z,3.32
2022-12-28T09:00:27.880Z,2.90
2022-12-28T09:02:54.571Z,3.25
2022-12-28T09:05:21.175Z,3.73
2022-12-28T09:07:47.891Z,3.56
2022-12-28T09:10:14.364Z,3.64
2022-12-28T09:12:42.897Z,4.69
2022-12-28T09:15:10.284Z,4.56
2022-12-28T09:17:36.950Z,3.50
2022-12-28T09:20:10.928Z,3.14
2022-12-28T09:22:37.313Z,3.52
2022-12-28T09:25:03.706Z,3.86
2022-12-28T09:27:30.403Z,3.16
2022-12-28T09:29:57.071Z,3.40
2022-12-28T09:32:23.431Z,3.17
2022-12-28T09:34:49.824Z,2.97
2022-12-28T09:37:16.525Z,3.76
2022-12-28T09:39:42.944Z,3.93
2022-12-28T09:42:09.397Z,3.63
2022-12-28T09:44:35.780Z,3.40
2022-12-28T09:47:02.655Z,3.30
2022-12-28T09:49:29.079Z,3.14
2022-12-28T09:51:55.790Z,3.26
2022-12-28T09:54:22.277Z,3.38
2022-12-28T09:56:48.909Z,3.17
2022-12-28T09:59:15.663Z,2.98
2022-12-28T10:01:43.280Z,2.90
2022-12-28T10:04:09.693Z,2.75
2022-12-28T10:06:36.474Z,2.99
2022-12-28T10:09:02.861Z,3.02
2022-12-28T10:11:30.205Z,3.06
2022-12-28T10:13:56.693Z,3.06
2022-12-28T10:16:23.293Z,2.77
2022-12-28T10:18:49.735Z,2.50
2022-12-28T10:21:16.107Z,2.46
2022-12-28T10:24:04.651Z,2.60
2022-12-28T10:26:28.791Z,2.37
2022-12-28T10:28:55.169Z,2.56
2022-12-28T10:31:22.172Z,2.33
2022-12-28T10:33:48.693Z,2.33
2022-12-28T10:36:15.136Z,2.23
2022-12-28T10:38:41.611Z,2.06
2022-12-28T10:41:08.404Z,2.12
2022-12-28T10:43:34.784Z,2.30
2022-12-28T10:46:01.171Z,1.99
2022-12-28T10:48:27.702Z,1.87
2022-12-28T10:50:54.354Z,1.79
2022-12-28T10:53:21.272Z,2.02
2022-12-28T10:55:47.638Z,1.66
2022-12-28T10:58:31.146Z,1.51
2022-12-28T11:00:58.572Z,1.48
2022-12-28T11:03:26.092Z,1.61
2022-12-28T11:05:57.467Z,1.52
2022-12-28T11:08:24.874Z,1.84
2022-12-28T11:10:52.251Z,1.90
2022-12-28T11:13:21.943Z,1.66
2022-12-28T11:15:49.578Z,1.59
2022-12-28T11:18:16.072Z,1.22
2022-12-28T11:20:42.403Z,1.33
2022-12-28T11:23:08.866Z,1.17
2022-12-28T11:25:35.454Z,1.33
2022-12-28T11:28:02.088Z,1.34
2022-12-28T11:30:28.446Z,1.12
2022-12-28T11:32:55.105Z,1.43
2022-12-28T11:35:21.805Z,1.43
2022-12-28T11:37:48.378Z,1.32
2022-12-28T11:40:14.862Z,1.15
2022-12-28T11:42:42.340Z,1.07
2022-12-28T11:45:11.263Z,0.98
2022-12-28T11:47:37.810Z,0.91
2022-12-28T11:50:04.498Z,0.77
2022-12-28T11:52:31.007Z,0.94
2022-12-28T11:54:57.474Z,1.09
2022-12-28T11:57:23.866Z,0.92
2022-12-28T11:59:50.217Z,1.03
2022-12-28T12:02:16.641Z,0.93
2022-12-28T12:04:43.131Z,0.88
2022-12-28T12:07:09.517Z,0.83
2022-12-28T12:09:36.025Z,0.89
2022-12-28T12:12:02.729Z,0.76
2022-12-28T12:14:29.057Z,0.73
2022-12-28T12:16:57.871Z,0.72
2022-12-28T12:19:24.622Z,0.75
2022-12-28T12:21:51.443Z,0.76
2022-12-28T12:24:20.210Z,0.68
2022-12-28T12:26:46.612Z,0.59
2022-12-28T12:29:13.189Z,0.80
2022-12-28T12:31:39.584Z,0.81
2022-12-28T12:34:06.132Z,0.89
2022-12-28T12:36:32.610Z,0.82
2022-12-28T12:39:00.036Z,0.79
2022-12-28T12:41:26.664Z,0.89
2022-12-28T12:43:55.203Z,0.85
2022-12-28T12:46:21.598Z,0.81
2022-12-28T12:48:48.205Z,0.97
2022-12-28T12:51:14.559Z,0.93
2022-12-28T12:53:48.000Z,0.87
2022-12-28T12:56:17.759Z,1.10
2022-12-28T12:58:44.214Z,0.90
2022-12-28T13:01:10.692Z,0.76
2022-12-28T13:03:37.106Z,0.80
2022-12-28T13:06:03.480Z,0.94
2022-12-28T13:08:30.130Z,0.96
2022-12-28T13:10:58.693Z,1.05
2022-12-28T13:13:25.034Z,0.88
2022-12-28T13:15:51.577Z,0.99
2022-12-28T13:21:10.630Z,0.96
2022-12-28T13:23:40.071Z,1.01
2022-12-28T13:26:06.449Z,0.87
2022-12-28T13:28:33.430Z,0.98
2022-12-28T13:31:00.027Z,0.99
2022-12-28T13:33:29.212Z,0.91
2022-12-28T13:35:55.673Z,0.89
2022-12-28T13:38:22.569Z,0.96
2022-12-28T13:40:48.981Z,0.91
2022-12-28T13:43:15.653Z,1.00
2022-12-28T13:45:46.191Z,0.93
2022-12-28T13:48:16.018Z,0.90
2022-12-28T13:50:42.521Z,0.81
2022-12-28T13:53:11.155Z,1.00
2022-12-28T13:55:37.752Z,1.22
2022-12-28T13:58:04.788Z,1.05
2022-12-28T14:00:33.228Z,1.03
2022-12-28T14:03:06.667Z,1.02
2022-12-28T14:05:33.107Z,1.10
2022-12-28T14:08:02.496Z,1.11
2022-12-28T14:10:28.958Z,1.13
2022-12-28T14:12:59.201Z,1.11
2022-12-28T14:15:25.647Z,1.22
2022-12-28T14:17:52.392Z,1.26
2022-12-28T14:20:19.081Z,1.51
2022-12-28T14:22:45.557Z,1.19
2022-12-28T14:25:12.247Z,1.35
2022-12-28T14:27:41.067Z,1.80
2022-12-28T14:30:08.787Z,1.73
2022-12-28T14:32:40.692Z,1.38
2022-12-28T14:35:11.497Z,1.28
2022-12-28T14:37:40.575Z,1.29
2022-12-28T14:40:08.163Z,1.19
2022-12-28T14:42:38.262Z,1.18
2022-12-28T14:45:04.865Z,1.21
2022-12-28T14:47:31.249Z,1.29
2022-12-28T14:49:59.883Z,1.66
2022-12-28T14:52:26.485Z,1.40
2022-12-28T14:54:52.988Z,1.32
2022-12-28T14:57:25.225Z,1.43
2022-12-28T14:59:51.835Z,1.69
2022-12-28T15:02:18.886Z,1.70
2022-12-28T15:04:45.437Z,1.65
2022-12-28T15:07:11.852Z,1.79
2022-12-28T15:09:38.749Z,2.04
2022-12-28T15:12:08.059Z,2.32
2022-12-28T15:14:43.317Z,2.30
2022-12-28T15:17:09.813Z,2.51
2022-12-28T15:19:37.043Z,2.28
2022-12-28T15:22:04.435Z,1.88
2022-12-28T15:24:34.120Z,1.32
2022-12-28T15:27:01.035Z,1.45
2022-12-28T15:30:03.811Z,1.51
2022-12-28T15:32:20.325Z,1.62
2022-12-28T15:34:46.976Z,1.57
2022-12-28T15:37:14.873Z,1.51
2022-12-28T15:39:41.254Z,1.46
2022-12-28T15:42:07.831Z,1.32
2022-12-28T15:44:34.528Z,1.38
2022-12-28T15:47:00.989Z,1.30
2022-12-28T15:49:27.535Z,1.62
2022-12-28T15:51:54.023Z,1.70
2022-12-28T15:54:21.469Z,1.46
2022-12-28T15:56:50.369Z,1.99
2022-12-28T15:59:16.774Z,1.87
2022-12-28T16:01:47.196Z,1.69
2022-12-28T16:04:14.102Z,1.90
2022-12-28T16:06:44.656Z,1.68
2022-12-28T16:09:11.523Z,1.81
2022-12-28T16:11:37.885Z,1.76
2022-12-28T16:14:04.349Z,1.99
2022-12-28T16:16:31.876Z,3.01
2022-12-28T16:18:58.698Z,2.62
2022-12-28T16:21:25.087Z,1.81
2022-12-28T16:23:51.486Z,2.20
2022-12-28T16:26:17.833Z,2.38
2022-12-28T16:28:44.388Z,5.48
2022-12-28T16:31:10.876Z,4.31
2022-12-28T16:33:38.292Z,3.94
2022-12-28T16:36:05.119Z,3.18
2022-12-28T16:38:31.810Z,3.09
2022-12-28T16:40:58.305Z,3.86
2022-12-28T16:43:25.377Z,5.41
2022-12-28T16:45:51.934Z,4.67
2022-12-28T16:48:20.442Z,3.69
2022-12-28T16:50:46.821Z,3.30
2022-12-28T16:53:13.183Z,6.09
2022-12-28T16:55:39.601Z,5.95
2022-12-28T16:58:06.214Z,5.66
2022-12-28T17:00:32.720Z,4.14
2022-12-28T17:02:59.186Z,3.54
2022-12-28T17:05:25.630Z,3.43
2022-12-28T17:07:52.126Z,3.83
2022-12-28T17:10:21.973Z,5.22
2022-12-28T17:12:49.181Z,3.66
2022-12-28T17:15:16.644Z,3.12
2022-12-28T17:17:43.035Z,3.13
2022-12-28T17:20:09.546Z,2.58
2022-12-28T17:22:36.310Z,2.62
2022-12-28T17:25:02.654Z,4.42
2022-12-28T17:27:29.054Z,5.94
2022-12-28T17:29:55.641Z,7.69
2022-12-28T17:32:22.160Z,7.76
2022-12-28T17:34:49.180Z,9.25
2022-12-28T17:37:15.606Z,7.50
2022-12-28T17:39:42.233Z,4.83
2022-12-28T17:42:09.037Z,4.46
2022-12-28T17:44:35.663Z,5.77
2022-12-28T17:47:02.144Z,5.48
2022-12-28T17:49:28.493Z,3.87
2022-12-28T17:51:54.925Z,3.76
2022-12-28T17:54:21.619Z,3.29
2022-12-28T17:56:47.979Z,3.88
2022-12-28T17:59:14.745Z,4.37
2022-12-28T18:01:41.628Z,3.00
2022-12-28T18:04:08.264Z,3.15
2022-12-28T18:06:35.126Z,3.33
2022-12-28T18:09:01.736Z,3.10
2022-12-28T18:11:30.885Z,2.87
2022-12-28T18:13:57.573Z,3.09
2022-12-28T18:16:24.274Z,3.56
2022-12-28T18:18:50.961Z,4.80
2022-12-28T18:21:21.404Z,4.95
2022-12-28T18:23:47.983Z,5.78
2022-12-28T18:26:15.033Z,5.73
2022-12-28T18:28:42.418Z,6.55
2022-12-28T18:31:08.886Z,7.24
2022-12-28T18:33:35.354Z,6.86
2022-12-28T18:36:01.815Z,7.10
2022-12-28T18:38:28.213Z,7.14
2022-12-28T18:40:54.975Z,10.69
2022-12-28T18:43:23.454Z,7.89
2022-12-28T18:45:52.427Z,6.11
2022-12-28T18:48:19.101Z,7.64
2022-12-28T18:50:46.499Z,8.59
2022-12-28T18:53:12.843Z,9.57
2022-12-28T18:55:43.948Z,9.12
2022-12-28T18:58:11.811Z,7.26
2022-12-28T19:00:38.172Z,5.29
2022-12-28T19:03:05.721Z,6.19
2022-12-28T19:05:32.342Z,5.36
2022-12-28T19:07:58.719Z,5.84
2022-12-28T19:10:27.614Z,5.69
2022-12-28T19:12:54.470Z,5.34
2022-12-28T19:15:20.818Z,9.04
2022-12-28T19:17:47.192Z,9.64
2022-12-28T19:20:13.532Z,9.27
2022-12-28T19:22:39.911Z,8.92
2022-12-28T19:25:06.490Z,8.32
2022-12-28T19:27:33.049Z,9.39
2022-12-28T19:29:59.625Z,11.56
2022-12-28T19:32:26.160Z,10.14
2022-12-28T19:34:52.498Z,9.92
2022-12-28T19:37:19.033Z,9.19
2022-12-28T19:39:45.373Z,9.05
2022-12-28T19:42:11.767Z,8.66
2022-12-28T19:44:38.226Z,10.76
2022-12-28T19:47:04.802Z,10.08
2022-12-28T19:49:31.213Z,14.32
2022-12-28T19:51:57.721Z,12.47
2022-12-28T19:54:24.183Z,11.02
2022-12-28T19:56:50.624Z,6.82
2022-12-28T19:59:17.020Z,7.28
2022-12-28T20:01:43.570Z,5.70
2022-12-28T20:04:13.831Z,5.14
2022-12-28T20:06:41.285Z,6.07
2022-12-28T20:09:10.357Z,6.96
2022-12-28T20:11:36.780Z,6.10
2022-12-28T20:14:03.201Z,6.13
2022-12-28T20:16:30.203Z,6.33
2022-12-28T20:18:57.751Z,6.19
2022-12-28T20:21:24.209Z,7.72
2022-12-28T20:23:50.701Z,8.04
2022-12-28T20:26:17.159Z,8.56
2022-12-28T20:28:43.537Z,9.23
2022-12-28T20:31:10.040Z,7.75
2022-12-28T20:33:36.406Z,8.23
2022-12-28T20:36:07.571Z,7.27
2022-12-28T20:38:34.149Z,6.57
2022-12-28T20:41:01.828Z,7.78
2022-12-28T20:43:28.646Z,8.50
2022-12-28T20:45:55.033Z,7.38
2022-12-28T20:48:22.459Z,7.18
2022-12-28T20:50:48.847Z,7.19
2022-12-28T20:53:15.540Z,6.46
2022-12-28T20:55:42.314Z,6.13
2022-12-28T20:58:08.722Z,6.71
2022-12-28T21:00:35.342Z,7.87
2022-12-28T21:03:02.350Z,7.99
2022-12-28T21:05:28.791Z,6.59
2022-12-28T21:07:55.970Z,7.21
2022-12-28T21:10:22.792Z,7.04
2022-12-28T21:12:50.181Z,6.13
2022-12-28T21:15:16.889Z,6.31
2022-12-28T21:17:43.224Z,5.95
2022-12-28T21:20:09.559Z,5.16
2022-12-28T21:22:36.157Z,4.77
2022-12-28T21:25:02.665Z,4.78
2022-12-28T21:27:30.230Z,5.31
2022-12-28T21:29:56.864Z,8.38
2022-12-28T21:32:23.610Z,6.42
2022-12-28T21:34:50.209Z,4.70
2022-12-28T21:37:16.773Z,3.84
2022-12-28T21:39:43.266Z,3.87
2022-12-28T21:42:09.892Z,4.21
2022-12-28T21:44:36.510Z,3.97
2022-12-28T21:47:03.209Z,3.88
2022-12-28T21:49:29.659Z,3.64
2022-12-28T21:51:56.021Z,3.47
2022-12-28T21:54:22.470Z,3.26
2022-12-28T21:56:51.187Z,3.37
2022-12-28T21:59:17.588Z,3.42
2022-12-28T22:01:44.558Z,3.32
2022-12-28T22:04:11.190Z,3.41
2022-12-28T22:06:37.586Z,3.53
2022-12-28T22:09:04.059Z,3.14
2022-12-28T22:11:30.575Z,3.21
2022-12-28T22:13:56.991Z,2.91
2022-12-28T22:16:24.401Z,2.89
2022-12-28T22:19:07.226Z,2.81
2022-12-28T22:21:33.758Z,2.78
2022-12-28T22:24:00.150Z,2.85
2022-12-28T22:26:26.551Z,2.60
2022-12-28T22:28:52.980Z,2.60
2022-12-28T22:31:21.467Z,2.75
2022-12-28T22:33:50.423Z,2.58
2022-12-28T22:36:16.932Z,2.74
2022-12-28T22:38:43.312Z,3.12
2022-12-28T22:41:09.898Z,3.33
2022-12-28T22:43:36.281Z,3.30
2022-12-28T22:46:02.660Z,3.30
2022-12-28T22:48:29.079Z,3.43
2022-12-28T22:50:55.470Z,3.36
2022-12-28T22:53:21.880Z,2.98
2022-12-28T22:55:48.978Z,3.15
2022-12-28T22:58:15.502Z,2.74
2022-12-28T23:00:41.874Z,3.25
2022-12-28T23:03:08.269Z,3.53
2022-12-28T23:05:36.993Z,3.31
2022-12-28T23:08:03.484Z,2.98
2022-12-28T23:10:30.087Z,3.24
2022-12-28T23:12:56.452Z,3.16
2022-12-28T23:15:22.824Z,3.26
2022-12-28T23:17:50.211Z,3.36
2022-12-28T23:20:16.540Z,3.39
2022-12-28T23:22:42.994Z,3.36
2022-12-28T23:25:09.394Z,3.40
2022-12-28T23:27:35.724Z,3.27
2022-12-28T23:30:02.109Z,2.86
2022-12-28T23:32:28.473Z,2.63
2022-12-28T23:34:57.909Z,2.67
2022-12-28T23:37:25.635Z,2.68
2022-12-28T23:39:52.071Z,2.80
2022-12-28T23:42:18.485Z,2.88
2022-12-28T23:44:44.823Z,2.85
2022-12-28T23:47:11.192Z,2.96
2022-12-28T23:49:37.902Z,2.99
2022-12-28T23:52:04.299Z,2.77
2022-12-28T23:54:30.695Z,2.58
2022-12-28T23:56:57.372Z,2.80
2022-12-28T23:59:24.835Z,2.72
